createdAt,value
2018-11-21T00:03:11.300Z,1.80
2018-11-21T00:08:13.417Z,4.60
2018-11-21T00:13:15.524Z,2.80
2018-11-21T00:18:17.658Z,3.50
2018-11-21T00:23:19.828Z,1.90
2018-11-21T00:28:22.232Z,0.70
2018-11-21T00:33:24.348Z,2.90
2018-11-21T00:38:26.461Z,0.40
2018-11-21T00:43:28.669Z,1.20
2018-11-21T00:48:30.810Z,0.60
2018-11-21T00:53:32.940Z,0.20
2018-11-21T00:58:35.046Z,1.60
2018-11-21T01:03:37.278Z,0.10
2018-11-21T01:08:39.524Z,-0.10
2018-11-21T01:13:42.073Z,-0.30
2018-11-21T01:18:44.309Z,1.20
2018-11-21T01:23:46.617Z,2.40
2018-11-21T01:28:48.940Z,0.40
2018-11-21T01:33:51.225Z,1.20
2018-11-21T01:38:53.386Z,0.00
2018-11-21T01:43:55.512Z,3.40
2018-11-21T01:48:57.628Z,2.10
2018-11-21T01:53:59.875Z,2.00
2018-11-21T01:59:03.252Z,-0.30
2018-11-21T02:04:05.467Z,-0.30
2018-11-21T02:09:09.252Z,-0.20
2018-11-21T02:14:11.418Z,2.30
2018-11-21T02:19:13.555Z,0.90
2018-11-21T02:24:15.685Z,1.00
2018-11-21T02:29:17.801Z,-0.60
2018-11-21T02:34:19.885Z,0.40
2018-11-21T02:39:22.005Z,0.20
2018-11-21T02:44:24.108Z,-0.80
2018-11-21T02:49:26.250Z,-0.50
2018-11-21T02:54:28.390Z,0.10
2018-11-21T02:59:31.088Z,-0.10
2018-11-21T03:04:33.198Z,-0.60
2018-11-21T03:09:35.784Z,-0.90
2018-11-21T03:14:37.899Z,0.00
2018-11-21T03:19:40.063Z,-1.10
2018-11-21T03:24:42.194Z,0.40
2018-11-21T03:29:44.362Z,-1.60
2018-11-21T03:34:46.485Z,0.50
2018-11-21T03:39:48.725Z,-0.60
2018-11-21T03:44:51.011Z,-0.10
2018-11-21T03:49:53.138Z,-1.40
2018-11-21T03:54:55.251Z,0.10
2018-11-21T03:59:57.390Z,0.90
2018-11-21T04:04:59.493Z,-2.10
2018-11-21T04:10:01.619Z,0.30
2018-11-21T04:15:05.078Z,-0.40
2018-11-21T04:20:07.517Z,-2.20
2018-11-21T04:25:10.829Z,-0.30
2018-11-21T04:30:12.936Z,-0.20
2018-11-21T04:35:15.103Z,-1.70
2018-11-21T04:40:17.233Z,1.10
2018-11-21T04:45:19.355Z,-1.50
2018-11-21T04:50:21.495Z,-1.40
2018-11-21T04:55:23.647Z,-1.70
2018-11-21T05:00:25.800Z,-1.20
2018-11-21T05:05:27.949Z,-0.80
2018-11-21T05:10:30.166Z,-1.50
2018-11-21T05:15:32.335Z,0.70
2018-11-21T05:20:35.047Z,0.50
2018-11-21T05:25:37.296Z,1.10
2018-11-21T05:30:39.405Z,1.50
2018-11-21T05:35:41.551Z,-1.20
2018-11-21T05:40:43.652Z,0.60
2018-11-21T05:45:45.804Z,1.00
2018-11-21T05:50:47.958Z,-2.10
2018-11-21T05:55:50.090Z,0.00
2018-11-21T06:00:52.201Z,-2.10
2018-11-21T06:05:54.318Z,-0.10
2018-11-21T06:10:56.421Z,0.40
2018-11-21T06:15:58.544Z,-0.40
2018-11-21T06:21:00.900Z,-1.80
2018-11-21T06:26:03.201Z,-2.00
2018-11-21T06:31:05.389Z,-1.00
2018-11-21T06:36:07.465Z,-3.40
2018-11-21T06:41:09.578Z,-0.80
2018-11-21T06:46:11.684Z,-2.90
2018-11-21T06:51:14.673Z,-2.10
2018-11-21T06:56:16.820Z,-2.90
2018-11-21T07:01:18.950Z,-2.80
2018-11-21T07:06:21.091Z,-0.20
2018-11-21T07:11:23.199Z,-0.30
2018-11-21T07:16:25.340Z,-2.80
2018-11-21T07:21:27.530Z,-0.20
2018-11-21T07:26:29.706Z,-2.80
2018-11-21T07:31:31.827Z,-2.70
2018-11-21T07:36:33.965Z,0.10
2018-11-21T07:41:36.096Z,-1.10
2018-11-21T07:46:38.203Z,-2.10
2018-11-21T07:51:40.430Z,-1.90
2018-11-21T07:57:29.338Z,0.20
2018-11-21T08:02:35.523Z,1.40
2018-11-21T08:07:44.353Z,-0.10
2018-11-21T08:13:14.999Z,-0.70
2018-11-21T08:18:45.937Z,-0.10
2018-11-21T08:24:19.838Z,0.00
2018-11-21T08:29:21.999Z,0.00
2018-11-21T08:34:24.120Z,0.00
2018-11-21T08:39:26.333Z,0.30
2018-11-21T08:44:28.490Z,0.10
2018-11-21T08:49:30.605Z,1.10
2018-11-21T08:54:32.693Z,2.70
2018-11-21T08:59:34.859Z,2.00
2018-11-21T09:04:37.001Z,2.90
2018-11-21T09:09:39.127Z,1.40
2018-11-21T09:14:41.266Z,1.30
2018-11-21T09:19:43.461Z,2.60
2018-11-21T09:24:45.629Z,3.60
2018-11-21T09:29:47.736Z,2.40
2018-11-21T09:34:49.857Z,3.40
2018-11-21T09:39:51.966Z,2.50
2018-11-21T09:44:54.108Z,2.60
2018-11-21T09:49:56.251Z,2.70
2018-11-21T09:54:58.397Z,3.20
2018-11-21T10:00:00.510Z,3.60
2018-11-21T10:05:02.687Z,3.00
2018-11-21T10:10:04.927Z,3.20
2018-11-21T10:15:07.654Z,3.80
2018-11-21T10:20:09.803Z,3.90
2018-11-21T10:25:11.966Z,4.30
2018-11-21T10:30:14.097Z,3.90
2018-11-21T10:35:16.248Z,4.10
2018-11-21T10:40:18.363Z,4.20
2018-11-21T10:45:20.462Z,4.30
2018-11-21T10:50:22.578Z,6.20
2018-11-21T10:55:24.756Z,4.80
2018-11-21T11:00:45.262Z,4.90
2018-11-21T11:06:06.169Z,2.10
2018-11-21T11:11:17.799Z,5.20
2018-11-21T11:16:45.483Z,5.30
2018-11-21T11:22:05.684Z,4.90
2018-11-21T11:27:25.904Z,4.70
2018-11-21T11:32:53.278Z,4.50
2018-11-21T11:38:13.772Z,4.40
2018-11-21T11:43:47.526Z,4.40
2018-11-21T11:49:15.296Z,4.30
2018-11-21T11:54:45.830Z,4.20
2018-11-21T12:00:06.138Z,4.70
2018-11-21T12:05:26.312Z,4.50
2018-11-21T12:10:44.734Z,4.70
2018-11-21T12:15:59.628Z,5.00
2018-11-21T12:21:20.101Z,5.30
2018-11-21T12:26:47.593Z,5.70
2018-11-21T12:32:08.023Z,5.00
2018-11-21T12:37:34.827Z,5.10
2018-11-21T12:42:59.257Z,5.00
2018-11-21T12:48:36.134Z,5.00
2018-11-21T12:54:00.918Z,4.80
2018-11-21T12:59:37.677Z,5.10
2018-11-21T13:04:51.229Z,4.30
2018-11-21T13:10:18.885Z,4.90
2018-11-21T13:15:49.575Z,4.70
2018-11-21T13:21:04.150Z,5.10
2018-11-21T13:26:14.381Z,4.10
2018-11-21T13:31:34.715Z,3.70
2018-11-21T13:36:55.617Z,3.50
2018-11-21T13:42:22.846Z,3.30
2018-11-21T13:47:44.571Z,4.60
2018-11-21T13:52:56.225Z,3.00
2018-11-21T13:57:58.415Z,3.50
2018-11-21T14:03:00.537Z,2.90
2018-11-21T14:08:02.708Z,2.90
2018-11-21T14:13:04.888Z,2.90
2018-11-21T14:18:07.017Z,5.40
2018-11-21T14:23:09.161Z,2.80
2018-11-21T14:28:11.287Z,3.20
2018-11-21T14:33:13.475Z,3.00
2018-11-21T14:38:15.656Z,3.40
2018-11-21T14:43:17.810Z,2.60
2018-11-21T14:48:19.949Z,3.20
2018-11-21T14:53:22.074Z,2.50
2018-11-21T14:58:24.240Z,1.00
2018-11-21T15:03:26.410Z,2.40
2018-11-21T15:08:28.530Z,2.60
2018-11-21T15:13:30.672Z,2.10
2018-11-21T15:18:32.801Z,3.10
2018-11-21T15:23:34.925Z,2.00
2018-11-21T15:28:37.078Z,3.30
2018-11-21T15:33:39.332Z,2.90
2018-11-21T15:38:41.539Z,1.90
2018-11-21T15:43:43.685Z,2.40
2018-11-21T15:48:46.390Z,1.80
2018-11-21T15:53:48.472Z,1.80
2018-11-21T15:58:50.613Z,4.00
2018-11-21T16:03:52.757Z,2.60
2018-11-21T16:08:54.972Z,3.40
2018-11-21T16:13:57.150Z,3.70
2018-11-21T16:18:59.333Z,2.90
2018-11-21T16:24:01.506Z,1.70
2018-11-21T16:29:03.694Z,2.00
2018-11-21T16:34:05.906Z,1.70
2018-11-21T16:39:12.159Z,1.70
2018-11-21T16:44:14.278Z,1.70
2018-11-21T16:49:16.443Z,2.40
2018-11-21T16:54:18.567Z,2.20
2018-11-21T16:59:20.716Z,2.20
2018-11-21T17:04:22.944Z,3.60
2018-11-21T17:09:27.820Z,1.70
2018-11-21T17:14:29.996Z,2.20
2018-11-21T17:19:32.167Z,1.70
2018-11-21T17:24:34.683Z,3.40
2018-11-21T17:29:36.863Z,1.70
2018-11-21T17:34:39.033Z,1.70
2018-11-21T17:39:41.267Z,1.70
2018-11-21T17:44:43.414Z,1.90
2018-11-21T17:54:47.691Z,2.80
2018-11-21T17:59:49.863Z,1.70
2018-11-21T18:04:52.033Z,2.60
2018-11-21T18:09:54.183Z,1.70
2018-11-21T18:14:56.322Z,1.60
2018-11-21T18:19:58.502Z,1.60
2018-11-21T18:25:00.637Z,1.60
2018-11-21T18:30:06.384Z,1.60
2018-11-21T18:35:09.812Z,2.60
2018-11-21T18:40:16.423Z,1.70
2018-11-21T18:45:21.030Z,3.80
2018-11-21T18:50:23.372Z,3.80
2018-11-21T18:55:30.705Z,1.70
2018-11-21T19:00:34.413Z,3.30
2018-11-21T19:05:36.601Z,4.60
2018-11-21T19:10:38.746Z,2.70
2018-11-21T19:15:40.949Z,1.80
2018-11-21T19:20:43.094Z,1.70
2018-11-21T19:25:45.305Z,1.80
2018-11-21T19:30:47.432Z,1.70
2018-11-21T19:35:49.619Z,2.80
2018-11-21T19:40:51.814Z,1.70
2018-11-21T19:45:53.934Z,1.70
2018-11-21T19:50:56.126Z,1.70
2018-11-21T19:55:58.285Z,1.70
2018-11-21T20:01:00.384Z,1.90
2018-11-21T20:06:02.588Z,2.60
2018-11-21T20:11:05.134Z,1.70
2018-11-21T20:16:07.325Z,3.00
2018-11-21T20:21:09.545Z,1.70
2018-11-21T20:26:11.707Z,1.70
2018-11-21T20:31:13.895Z,3.00
2018-11-21T20:36:16.137Z,2.10
2018-11-21T20:41:18.301Z,1.70
2018-11-21T20:46:20.764Z,2.30
2018-11-21T20:51:22.917Z,2.80
2018-11-21T20:56:25.101Z,2.10
2018-11-21T21:01:27.243Z,2.00
2018-11-21T21:06:29.426Z,4.30
2018-11-21T21:11:31.591Z,1.70
2018-11-21T21:16:33.759Z,2.60
2018-11-21T21:21:35.956Z,3.60
2018-11-21T21:26:38.085Z,1.70
2018-11-21T21:31:40.235Z,4.20
2018-11-21T21:36:42.406Z,2.90
2018-11-21T21:41:44.518Z,1.70
2018-11-21T21:46:46.654Z,3.00
2018-11-21T21:51:48.861Z,4.10
2018-11-21T21:56:51.043Z,1.70
2018-11-21T22:01:53.226Z,4.10
2018-11-21T22:06:55.421Z,3.30
2018-11-21T22:11:57.569Z,1.60
2018-11-21T22:16:59.789Z,2.60
2018-11-21T22:22:02.025Z,2.00
2018-11-21T22:27:04.281Z,1.60
2018-11-21T22:32:06.426Z,2.50
2018-11-21T22:37:08.599Z,2.70
2018-11-21T22:42:10.736Z,1.50
2018-11-21T22:47:12.890Z,2.00
2018-11-21T22:52:15.048Z,1.90
2018-11-21T22:57:17.175Z,2.00
2018-11-21T23:02:20.081Z,2.90
2018-11-21T23:07:22.193Z,3.80
2018-11-21T23:12:24.306Z,1.70
2018-11-21T23:17:26.402Z,2.30
2018-11-21T23:22:32.489Z,2.70
2018-11-21T23:27:30.655Z,1.70
2018-11-21T23:32:32.926Z,3.20
2018-11-21T23:37:35.224Z,2.10
2018-11-21T23:42:37.882Z,2.60
2018-11-21T23:47:40.096Z,1.70
2018-11-21T23:52:42.292Z,2.40
2018-11-21T23:57:44.776Z,0.70
